createdAt,value
2023-03-24T00:01:04.715Z,89.81
2023-03-24T00:03:33.240Z,89.79
2023-03-24T00:08:54.893Z,90.12
2023-03-24T00:11:22.580Z,90.00
2023-03-24T00:20:14.415Z,89.95
2023-03-24T00:22:51.142Z,89.97
2023-03-24T00:25:23.716Z,89.72
2023-03-24T00:27:53.272Z,90.10
2023-03-24T00:30:20.969Z,90.31
2023-03-24T00:32:48.749Z,90.33
2023-03-24T00:35:17.742Z,90.26
2023-03-24T00:37:46.839Z,90.23
2023-03-24T00:40:50.786Z,90.22
2023-03-24T00:43:44.824Z,90.29
2023-03-24T00:46:27.417Z,90.41
2023-03-24T00:51:58.648Z,90.26
2023-03-24T00:54:55.288Z,90.54
2023-03-24T00:57:22.598Z,90.53
2023-03-24T00:59:52.828Z,90.82
2023-03-24T01:02:25.741Z,90.75
2023-03-24T01:05:02.156Z,90.82
2023-03-24T01:07:33.629Z,90.72
2023-03-24T01:10:00.631Z,91.04
2023-03-24T01:12:28.948Z,91.18
2023-03-24T01:15:03.473Z,90.97
2023-03-24T01:17:30.878Z,90.81
2023-03-24T01:19:58.782Z,91.27
2023-03-24T01:22:37.735Z,90.58
2023-03-24T01:25:16.899Z,91.17
2023-03-24T01:27:45.872Z,91.51
2023-03-24T01:30:18.448Z,91.57
2023-03-24T01:32:46.717Z,91.23
2023-03-24T01:35:41.057Z,91.22
2023-03-24T01:38:16.064Z,91.20
2023-03-24T01:40:46.779Z,91.48
2023-03-24T01:43:21.147Z,91.36
2023-03-24T01:45:51.728Z,91.20
2023-03-24T01:48:48.272Z,91.40
2023-03-24T01:51:25.396Z,91.34
2023-03-24T01:54:32.639Z,91.30
2023-03-24T01:57:30.695Z,91.58
2023-03-24T02:00:02.557Z,91.47
2023-03-24T02:02:55.314Z,91.20
2023-03-24T02:05:31.491Z,91.52
2023-03-24T02:08:33.521Z,91.56
2023-03-24T02:11:01.924Z,91.57
2023-03-24T02:13:43.603Z,91.47
2023-03-24T02:16:27.112Z,91.57
2023-03-24T02:19:43.294Z,91.76
2023-03-24T02:22:31.125Z,91.69
2023-03-24T02:25:39.934Z,91.61
2023-03-24T02:28:23.182Z,91.55
2023-03-24T02:31:21.709Z,91.69
2023-03-24T02:34:31.326Z,91.76
2023-03-24T02:37:27.666Z,91.67
2023-03-24T02:40:45.868Z,91.51
2023-03-24T02:43:20.185Z,91.74
2023-03-24T02:46:12.807Z,91.34
2023-03-24T02:48:46.653Z,91.63
2023-03-24T02:52:01.144Z,91.56
2023-03-24T02:57:45.394Z,92.01
2023-03-24T03:01:03.349Z,91.81
2023-03-24T03:03:52.176Z,91.63
2023-03-24T03:06:36.422Z,91.81
2023-03-24T03:09:14.186Z,91.36
2023-03-24T03:11:47.579Z,91.28
2023-03-24T03:20:29.948Z,91.54
2023-03-24T03:23:07.133Z,91.55
2023-03-24T03:26:11.104Z,91.93
2023-03-24T03:28:43.717Z,91.84
2023-03-24T03:31:21.170Z,91.82
2023-03-24T03:34:23.469Z,91.67
2023-03-24T03:36:54.840Z,91.78
2023-03-24T03:40:01.271Z,91.71
2023-03-24T03:42:30.905Z,92.07
2023-03-24T03:45:05.345Z,92.16
2023-03-24T03:47:37.627Z,91.79
2023-03-24T03:50:07.478Z,91.78
2023-03-24T03:52:37.054Z,91.84
2023-03-24T03:55:12.212Z,92.09
2023-03-24T03:57:41.460Z,91.98
2023-03-24T04:00:20.380Z,92.03
2023-03-24T04:03:45.661Z,92.15
2023-03-24T04:06:37.274Z,91.84
2023-03-24T04:09:28.856Z,91.49
2023-03-24T04:12:17.052Z,91.98
2023-03-24T04:15:19.918Z,92.17
2023-03-24T04:18:10.983Z,92.25
2023-03-24T04:21:48.728Z,92.31
2023-03-24T04:24:32.643Z,92.46
2023-03-24T04:27:48.027Z,92.20
2023-03-24T04:30:56.007Z,92.31
2023-03-24T04:33:31.199Z,92.30
2023-03-24T04:36:06.836Z,92.30
2023-03-24T04:38:53.296Z,92.32
2023-03-24T04:41:32.873Z,92.40
2023-03-24T04:44:12.609Z,92.24
2023-03-24T04:47:02.186Z,92.45
2023-03-24T04:49:31.928Z,92.81
2023-03-24T04:54:59.137Z,92.44
2023-03-24T05:00:27.739Z,92.46
2023-03-24T05:02:56.540Z,92.96
2023-03-24T05:05:26.472Z,92.70
2023-03-24T05:08:00.733Z,92.69
2023-03-24T05:10:28.595Z,92.75
2023-03-24T05:13:08.432Z,92.78
2023-03-24T05:15:36.570Z,92.88
2023-03-24T05:18:30.795Z,92.58
2023-03-24T05:21:04.566Z,92.59
2023-03-24T05:23:56.678Z,92.67
2023-03-24T05:26:33.252Z,92.68
2023-03-24T05:32:04.809Z,92.82
2023-03-24T05:35:03.537Z,92.61
2023-03-24T05:37:34.938Z,92.63
2023-03-24T05:40:10.023Z,92.69
2023-03-24T05:42:52.510Z,92.78
2023-03-24T05:45:29.510Z,92.84
2023-03-24T05:47:58.489Z,93.17
2023-03-24T05:50:38.554Z,93.13
2023-03-24T05:53:07.001Z,92.85
2023-03-24T05:59:12.524Z,92.86
2023-03-24T06:02:06.514Z,92.94
2023-03-24T06:05:01.499Z,93.01
2023-03-24T06:10:31.410Z,93.00
2023-03-24T06:13:00.634Z,92.68
2023-03-24T06:15:33.853Z,92.63
2023-03-24T06:18:21.489Z,92.99
2023-03-24T06:20:50.714Z,92.95
2023-03-24T06:23:49.529Z,92.99
2023-03-24T06:26:20.669Z,92.79
2023-03-24T06:28:57.489Z,93.13
2023-03-24T06:31:35.252Z,93.16
2023-03-24T06:34:03.917Z,93.12
2023-03-24T06:36:34.655Z,92.81
2023-03-24T06:39:02.805Z,93.19
2023-03-24T06:41:31.330Z,93.39
2023-03-24T06:44:01.237Z,93.22
2023-03-24T06:47:02.405Z,93.11
2023-03-24T06:49:34.634Z,93.44
2023-03-24T06:52:06.576Z,93.32
2023-03-24T06:54:42.251Z,93.39
2023-03-24T07:00:21.170Z,93.30
2023-03-24T07:03:10.742Z,93.48
2023-03-24T07:05:49.066Z,93.40
2023-03-24T07:11:02.680Z,93.32
2023-03-24T07:19:36.486Z,93.06
2023-03-24T07:22:43.469Z,93.03
2023-03-24T07:25:34.625Z,92.92
2023-03-24T07:36:48.248Z,91.18
2023-03-24T07:39:21.142Z,91.00
2023-03-24T07:45:01.181Z,91.05
2023-03-24T07:47:36.423Z,90.71
2023-03-24T07:52:55.281Z,90.01
2023-03-24T07:55:25.057Z,89.95
2023-03-24T07:58:19.567Z,89.83
2023-03-24T08:01:18.058Z,89.84
2023-03-24T08:03:49.337Z,89.63
2023-03-24T08:06:24.524Z,89.65
2023-03-24T08:08:53.495Z,89.27
2023-03-24T08:11:21.146Z,89.86
2023-03-24T08:13:49.114Z,88.13
2023-03-24T08:16:16.747Z,87.10
2023-03-24T08:18:45.432Z,86.49
2023-03-24T08:21:15.638Z,86.45
2023-03-24T08:23:48.669Z,85.74
2023-03-24T08:26:20.711Z,86.63
2023-03-24T08:28:49.858Z,87.36
2023-03-24T08:34:12.337Z,86.03
2023-03-24T08:36:41.401Z,84.99
2023-03-24T08:39:13.472Z,85.81
2023-03-24T08:41:51.938Z,85.24
2023-03-24T08:44:25.899Z,83.84
2023-03-24T08:46:54.570Z,83.94
2023-03-24T08:49:22.573Z,85.08
2023-03-24T08:51:53.453Z,84.61
2023-03-24T08:54:23.292Z,84.08
2023-03-24T08:56:51.077Z,84.99
2023-03-24T08:59:18.854Z,83.26
2023-03-24T09:01:46.617Z,84.56
2023-03-24T09:04:14.615Z,84.58
2023-03-24T09:06:42.710Z,84.52
2023-03-24T09:09:10.596Z,84.68
2023-03-24T09:11:38.743Z,83.64
2023-03-24T09:14:11.499Z,84.00
2023-03-24T09:16:38.538Z,83.22
2023-03-24T09:19:07.653Z,82.31
2023-03-24T09:21:38.423Z,82.59
2023-03-24T09:24:07.108Z,81.67
2023-03-24T09:26:46.567Z,80.88
2023-03-24T09:29:14.961Z,80.84
2023-03-24T09:31:42.914Z,79.68
2023-03-24T09:34:10.504Z,79.60
2023-03-24T09:36:38.874Z,79.58
2023-03-24T09:39:11.948Z,80.99
2023-03-24T09:41:44.344Z,79.83
2023-03-24T09:44:21.707Z,78.50
2023-03-24T09:47:02.223Z,78.63
2023-03-24T09:49:34.326Z,78.00
2023-03-24T09:52:05.982Z,79.84
2023-03-24T09:54:51.906Z,78.17
2023-03-24T09:57:41.384Z,79.05
2023-03-24T10:00:18.959Z,78.60
2023-03-24T10:02:49.043Z,78.11
2023-03-24T10:05:31.276Z,78.11
2023-03-24T10:08:21.596Z,78.57
2023-03-24T10:11:17.987Z,79.00
2023-03-24T10:13:46.592Z,78.39
2023-03-24T10:16:57.938Z,79.70
2023-03-24T10:20:04.417Z,77.97
2023-03-24T10:23:16.792Z,78.76
2023-03-24T10:25:59.704Z,78.59
2023-03-24T10:28:35.886Z,78.65
2023-03-24T10:31:13.742Z,77.53
2023-03-24T10:36:36.249Z,77.87
2023-03-24T10:39:41.971Z,77.66
2023-03-24T10:42:24.445Z,77.22
2023-03-24T10:44:57.792Z,75.99
2023-03-24T10:47:27.454Z,75.49
2023-03-24T10:50:00.780Z,76.34
2023-03-24T10:52:50.966Z,76.75
2023-03-24T10:55:24.608Z,77.04
2023-03-24T10:57:58.204Z,76.39
2023-03-24T11:00:30.031Z,75.52
2023-03-24T11:03:18.012Z,76.47
2023-03-24T11:05:47.527Z,75.39
2023-03-24T11:08:42.108Z,75.40
2023-03-24T11:11:23.854Z,74.80
2023-03-24T11:14:02.113Z,75.49
2023-03-24T11:16:42.775Z,73.61
2023-03-24T11:19:22.764Z,73.56
2023-03-24T11:22:02.567Z,73.62
2023-03-24T11:24:56.973Z,73.78
2023-03-24T11:27:24.791Z,72.73
2023-03-24T11:29:54.947Z,73.33
2023-03-24T11:35:18.854Z,72.58
2023-03-24T11:37:50.460Z,69.54
2023-03-24T11:43:50.743Z,68.43
2023-03-24T11:46:21.022Z,71.34
2023-03-24T11:48:58.812Z,68.96
2023-03-24T11:51:35.376Z,69.83
2023-03-24T11:54:11.785Z,67.96
2023-03-24T11:56:46.925Z,69.04
2023-03-24T12:00:03.760Z,69.71
2023-03-24T12:03:25.907Z,67.93
2023-03-24T12:06:39.053Z,68.19
2023-03-24T12:09:18.389Z,68.04
2023-03-24T12:12:00.995Z,68.14
2023-03-24T12:14:49.019Z,69.79
2023-03-24T12:17:58.966Z,69.04
2023-03-24T12:20:40.866Z,70.32
2023-03-24T12:23:41.383Z,70.26
2023-03-24T12:26:25.237Z,70.15
2023-03-24T12:28:57.345Z,70.82
2023-03-24T12:32:06.410Z,70.02
2023-03-24T12:34:48.867Z,70.07
2023-03-24T12:38:02.543Z,69.74
2023-03-24T12:41:24.496Z,68.35
2023-03-24T12:44:06.735Z,67.93
2023-03-24T12:46:47.264Z,69.06
2023-03-24T12:49:52.896Z,68.61
2023-03-24T12:52:40.962Z,67.74
2023-03-24T12:55:12.774Z,67.80
2023-03-24T12:58:01.757Z,69.39
2023-03-24T13:00:37.604Z,67.73
2023-03-24T13:03:11.559Z,69.11
2023-03-24T13:06:32.376Z,69.12
2023-03-24T13:09:26.363Z,69.62
2023-03-24T13:12:18.912Z,68.11
2023-03-24T13:15:11.193Z,68.31
2023-03-24T13:17:48.382Z,66.71
2023-03-24T13:20:34.659Z,66.91
2023-03-24T13:23:26.810Z,66.50
2023-03-24T13:26:34.131Z,65.60
2023-03-24T13:29:48.404Z,65.45
2023-03-24T13:33:14.694Z,64.91
2023-03-24T13:36:24.270Z,65.75
2023-03-24T13:39:24.759Z,63.74
2023-03-24T13:41:54.986Z,65.10
2023-03-24T13:44:33.964Z,64.69
2023-03-24T13:47:15.382Z,65.46
2023-03-24T13:49:56.273Z,64.94
2023-03-24T13:52:37.851Z,63.35
2023-03-24T13:55:19.825Z,64.59
2023-03-24T13:57:59.715Z,59.13
2023-03-24T14:00:28.280Z,62.10
2023-03-24T14:03:16.321Z,61.69
2023-03-24T14:06:02.480Z,59.77
2023-03-24T14:08:43.639Z,61.14
2023-03-24T14:11:32.562Z,60.03
2023-03-24T14:14:15.934Z,62.70
2023-03-24T14:17:05.096Z,62.69
2023-03-24T14:19:40.558Z,61.16
2023-03-24T14:22:13.421Z,61.52
2023-03-24T14:24:44.253Z,61.16
2023-03-24T14:27:36.555Z,60.57
2023-03-24T14:30:11.016Z,59.74
2023-03-24T14:33:04.144Z,60.29
2023-03-24T14:35:46.494Z,60.72
2023-03-24T14:38:14.551Z,60.82
2023-03-24T14:40:50.557Z,60.58
2023-03-24T14:43:26.032Z,57.96
2023-03-24T14:46:03.824Z,61.61
2023-03-24T14:49:15.535Z,61.65
2023-03-24T14:51:48.063Z,60.75
2023-03-24T14:54:29.484Z,60.86
2023-03-24T14:57:03.623Z,61.19
2023-03-24T14:59:39.980Z,57.59
2023-03-24T15:02:37.891Z,60.56
2023-03-24T15:05:31.880Z,60.65
2023-03-24T15:08:21.662Z,59.31
2023-03-24T15:10:55.972Z,60.84
2023-03-24T15:13:43.440Z,59.88
2023-03-24T15:16:17.798Z,59.91
2023-03-24T15:19:00.749Z,59.03
2023-03-24T15:21:42.083Z,59.52
2023-03-24T15:24:22.853Z,58.63
2023-03-24T15:27:10.950Z,58.11
2023-03-24T15:29:41.149Z,59.43
2023-03-24T15:35:15.475Z,61.04
2023-03-24T15:37:48.322Z,59.10
2023-03-24T15:40:52.014Z,59.79
2023-03-24T15:43:22.112Z,61.36
2023-03-24T15:46:04.779Z,61.64
2023-03-24T15:48:43.698Z,60.62
2023-03-24T15:51:15.772Z,58.90
2023-03-24T15:53:44.868Z,60.17
2023-03-24T15:56:12.584Z,59.88
2023-03-24T15:59:13.372Z,60.35
2023-03-24T16:01:46.172Z,60.35
2023-03-24T16:04:17.736Z,58.22
2023-03-24T16:06:54.019Z,57.77
2023-03-24T16:09:30.230Z,59.80
2023-03-24T16:11:58.508Z,59.77
2023-03-24T16:14:32.318Z,60.84
2023-03-24T16:17:02.977Z,59.71
2023-03-24T16:19:30.671Z,59.80
2023-03-24T16:21:58.618Z,62.35
2023-03-24T16:24:32.039Z,60.99
2023-03-24T16:29:52.770Z,61.53
2023-03-24T16:32:26.226Z,61.79
2023-03-24T16:34:54.466Z,61.14
2023-03-24T16:40:19.159Z,60.89
2023-03-24T16:42:46.673Z,62.44
2023-03-24T16:45:14.568Z,63.43
2023-03-24T16:48:11.583Z,62.26
2023-03-24T16:50:42.087Z,65.11
2023-03-24T16:53:10.560Z,64.65
2023-03-24T16:55:41.321Z,64.30
2023-03-24T16:58:16.641Z,64.44
2023-03-24T17:00:45.558Z,64.97
2023-03-24T17:03:18.614Z,65.68
2023-03-24T17:05:49.069Z,66.12
2023-03-24T17:08:18.551Z,65.04
2023-03-24T17:10:51.649Z,66.28
2023-03-24T17:13:25.818Z,65.98
2023-03-24T17:15:53.150Z,65.85
2023-03-24T17:18:20.502Z,66.40
2023-03-24T17:20:48.795Z,67.37
2023-03-24T17:23:18.560Z,67.29
2023-03-24T17:25:51.707Z,66.92
2023-03-24T17:28:18.491Z,67.49
2023-03-24T17:30:47.006Z,68.24
2023-03-24T17:33:40.762Z,67.55
2023-03-24T17:36:15.406Z,68.16
2023-03-24T17:38:43.621Z,67.65
2023-03-24T17:41:10.902Z,69.05
2023-03-24T17:43:38.488Z,70.41
2023-03-24T17:46:06.568Z,70.17
2023-03-24T17:51:26.551Z,71.20
2023-03-24T17:53:59.812Z,71.78
2023-03-24T17:56:28.533Z,72.14
2023-03-24T17:58:58.692Z,72.32
2023-03-24T18:01:29.333Z,72.09
2023-03-24T18:03:57.406Z,72.47
2023-03-24T18:06:24.608Z,73.01
2023-03-24T18:08:52.925Z,72.95
2023-03-24T18:11:20.508Z,73.00
2023-03-24T18:13:52.497Z,73.24
2023-03-24T18:16:22.230Z,72.78
2023-03-24T18:19:16.632Z,73.69
2023-03-24T18:21:44.553Z,73.76
2023-03-24T18:24:46.056Z,73.82
2023-03-24T18:30:15.985Z,73.64
2023-03-24T18:32:44.730Z,74.41
2023-03-24T18:35:23.752Z,74.25
2023-03-24T18:37:59.441Z,74.01
2023-03-24T18:40:37.495Z,73.97
2023-03-24T18:43:04.459Z,74.25
2023-03-24T18:45:32.709Z,74.10
2023-03-24T18:48:00.629Z,75.01
2023-03-24T18:50:28.473Z,74.80
2023-03-24T18:52:56.574Z,75.17
2023-03-24T18:58:22.517Z,75.49
2023-03-24T19:00:57.165Z,75.57
2023-03-24T19:03:26.320Z,76.00
2023-03-24T19:06:11.094Z,76.09
2023-03-24T19:08:41.224Z,76.01
2023-03-24T19:11:09.421Z,75.95
2023-03-24T19:13:36.926Z,75.95
2023-03-24T19:16:05.477Z,76.37
2023-03-24T19:18:32.495Z,76.36
2023-03-24T19:21:02.100Z,76.70
2023-03-24T19:23:31.144Z,76.65
2023-03-24T19:25:59.048Z,77.53
2023-03-24T19:28:29.523Z,77.46
2023-03-24T19:31:00.825Z,77.53
2023-03-24T19:33:28.613Z,77.70
2023-03-24T19:36:04.214Z,77.87
2023-03-24T19:38:32.896Z,78.06
2023-03-24T19:41:10.543Z,77.92
2023-03-24T19:43:38.684Z,78.30
2023-03-24T19:46:32.524Z,77.87
2023-03-24T19:49:00.553Z,78.61
2023-03-24T19:51:28.828Z,79.06
2023-03-24T19:54:00.647Z,79.07
2023-03-24T19:56:28.515Z,78.87
2023-03-24T19:58:56.533Z,79.00
2023-03-24T20:01:24.476Z,78.65
2023-03-24T20:03:56.597Z,79.44
2023-03-24T20:06:24.548Z,79.30
2023-03-24T20:08:52.541Z,79.60
2023-03-24T20:11:20.713Z,79.77
2023-03-24T20:13:48.516Z,79.52
2023-03-24T20:16:20.747Z,79.64
2023-03-24T20:19:14.484Z,80.03
2023-03-24T20:21:46.884Z,79.85
2023-03-24T20:24:14.773Z,80.44
2023-03-24T20:26:42.811Z,80.07
2023-03-24T20:29:10.593Z,80.51
2023-03-24T20:31:43.103Z,80.28
2023-03-24T20:34:11.286Z,80.09
2023-03-24T20:36:38.716Z,80.26
2023-03-24T20:39:06.549Z,80.37
2023-03-24T20:41:39.659Z,80.56
2023-03-24T20:44:06.888Z,80.62
2023-03-24T20:46:34.621Z,80.56
2023-03-24T20:49:02.749Z,80.60
2023-03-24T20:51:34.471Z,80.95
2023-03-24T20:54:02.475Z,80.62
2023-03-24T20:56:30.637Z,80.53
2023-03-24T21:02:20.177Z,80.72
2023-03-24T21:04:48.606Z,81.06
2023-03-24T21:07:20.571Z,80.62
2023-03-24T21:09:48.500Z,80.77
2023-03-24T21:12:16.622Z,80.69
2023-03-24T21:14:46.723Z,80.63
2023-03-24T21:20:10.672Z,80.82
2023-03-24T21:22:53.067Z,80.83
2023-03-24T21:25:25.799Z,81.10
2023-03-24T21:27:52.965Z,81.38
2023-03-24T21:30:26.588Z,81.40
2023-03-24T21:33:31.902Z,81.21
2023-03-24T21:36:00.521Z,81.42
2023-03-24T21:38:33.527Z,81.64
2023-03-24T21:41:01.740Z,81.77
2023-03-24T21:43:34.933Z,81.74
2023-03-24T21:46:03.894Z,82.16
2023-03-24T21:48:34.890Z,82.02
2023-03-24T21:51:03.872Z,82.38
2023-03-24T21:53:59.184Z,82.21
2023-03-24T21:56:26.497Z,81.84
2023-03-24T21:58:54.864Z,81.96
2023-03-24T22:01:48.478Z,81.70
2023-03-24T22:04:17.552Z,82.34
2023-03-24T22:06:44.608Z,82.49
2023-03-24T22:09:12.498Z,82.32
2023-03-24T22:11:43.061Z,82.74
2023-03-24T22:14:15.637Z,82.39
2023-03-24T22:16:42.705Z,82.82
2023-03-24T22:19:10.690Z,82.46
2023-03-24T22:21:41.051Z,82.53
2023-03-24T22:24:09.036Z,82.86
2023-03-24T22:26:36.466Z,83.04
2023-03-24T22:29:09.479Z,82.72
2023-03-24T22:31:42.785Z,83.07
2023-03-24T22:34:20.537Z,82.93
2023-03-24T22:36:55.025Z,83.44
2023-03-24T22:39:28.571Z,83.18
2023-03-24T22:42:03.178Z,82.67
2023-03-24T22:44:36.644Z,83.01
2023-03-24T22:47:04.625Z,82.49
2023-03-24T22:49:33.412Z,82.64
2023-03-24T22:52:01.230Z,82.57
2023-03-24T22:54:28.786Z,82.29
2023-03-24T22:56:59.388Z,82.96
2023-03-24T22:59:31.657Z,82.97
2023-03-24T23:02:09.110Z,83.05
2023-03-24T23:04:40.457Z,83.33
2023-03-24T23:07:16.470Z,83.66
2023-03-24T23:09:44.890Z,83.32
2023-03-24T23:12:13.546Z,82.90
2023-03-24T23:14:40.763Z,83.47
2023-03-24T23:17:09.390Z,83.76
2023-03-24T23:19:37.213Z,83.77
2023-03-24T23:22:05.028Z,83.90
2023-03-24T23:24:33.659Z,83.86
2023-03-24T23:27:00.537Z,83.94
2023-03-24T23:29:28.604Z,83.79
2023-03-24T23:34:50.387Z,84.03
2023-03-24T23:37:22.508Z,83.89
2023-03-24T23:39:56.094Z,84.08
2023-03-24T23:42:24.587Z,84.25
2023-03-24T23:44:52.497Z,83.75
2023-03-24T23:47:20.506Z,84.04
2023-03-24T23:49:48.443Z,82.97
2023-03-24T23:52:27.829Z,82.68
2023-03-24T23:54:54.778Z,83.22
2023-03-24T23:57:22.951Z,83.45
2023-03-24T23:59:56.741Z,83.36
